Time;durP1;ratioP1;P1;durP2;ratioP2;P2;SDS_P1;SDS_P2;PMS_P1;PMS_P2;Temp;Humidity;BMP_temperature;BMP_pressure;BME280_temperature;BME280_humidity;BME280_pressure;Samples;Min_cycle;Max_cycle;Signal;HPM_P1;HPM_P2
2022/12/15 00:38:46;;;;;;;3.90;2.63;;;;;;;-3.07;86.66;99658.28;10610704;27;20043;-75
2022/12/15 00:43:48;;;;;;;5.65;3.10;;;;;;;-3.21;87.22;99665.59;10648226;27;20043;-76
2022/12/15 00:48:51;;;;;;;3.15;2.40;;;;;;;-3.28;86.97;99670.19;10632782;27;20061;-76
2022/12/15 01:20:37;;;;;;;3.30;2.53;;;;;;;-3.17;85.88;99687.44;10613207;27;20035;-77
2022/12/15 01:25:39;;;;;;;5.60;3.10;;;;;;;-3.09;85.51;99689.88;10586896;27;20046;-77
2022/12/15 01:30:42;;;;;;;6.20;2.85;;;;;;;-3.05;85.62;99694.59;10596672;28;20050;-74
2022/12/15 01:35:44;;;;;;;6.47;3.45;;;;;;;-3.08;85.04;99696.91;10630914;27;20044;-75
2022/12/15 01:41:08;;;;;;;5.05;2.83;;;;;;;-3.07;85.40;99701.22;10614095;27;20418;-77
2022/12/15 01:46:29;;;;;;;1.13;0.98;;;;;;;-2.97;85.10;99712.28;10576776;27;20038;-75
2022/12/15 01:51:33;;;;;;;3.97;2.63;;;;;;;-2.99;84.91;99724.28;10608495;27;20058;-78
2022/12/15 01:56:43;;;;;;;4.43;2.60;;;;;;;-3.06;84.65;99738.56;10596793;27;20034;-76
2022/12/15 02:01:45;;;;;;;4.70;2.60;;;;;;;-3.04;84.66;99738.34;10632122;27;20409;-76
2022/12/15 02:06:47;;;;;;;5.30;3.00;;;;;;;-3.06;84.44;99741.25;10579028;27;20055;-76
2022/12/15 02:11:58;;;;;;;4.47;2.88;;;;;;;-3.13;84.74;99769.16;10611915;27;20050;-75
2022/12/15 02:17:12;;;;;;;6.47;2.75;;;;;;;-3.12;84.61;99778.88;10642071;27;20438;-76
2022/12/15 02:22:36;;;;;;;5.93;3.70;;;;;;;-3.16;84.42;99773.09;10620020;27;20035;-76
2022/12/15 02:27:47;;;;;;;5.85;3.47;;;;;;;-3.21;84.34;99783.63;10614059;27;20046;-75
2022/12/15 02:33:02;;;;;;;5.85;2.92;;;;;;;-3.22;83.99;99778.50;10603533;27;20054;-77
2022/12/15 02:38:07;;;;;;;4.85;3.13;;;;;;;-3.16;84.02;99783.00;10636079;27;20065;-74
2022/12/15 02:43:10;;;;;;;5.15;3.22;;;;;;;-3.25;83.73;99784.28;10625180;27;20222;-77
2022/12/15 02:48:24;;;;;;;6.97;3.33;;;;;;;-3.39;84.01;99796.91;10611400;28;20417;-77
2022/12/15 02:53:37;;;;;;;5.60;2.95;;;;;;;-3.43;83.99;99798.38;10591873;28;20048;-77
2022/12/15 02:58:56;;;;;;;5.30;3.65;;;;;;;-3.37;83.62;99803.72;10595062;28;20044;-77
2022/12/15 03:04:01;;;;;;;5.15;3.15;;;;;;;-3.50;83.39;99817.16;10624527;28;20035;-76
2022/12/15 03:09:03;;;;;;;4.95;2.78;;;;;;;-3.51;83.36;99812.00;10577246;28;20039;-77
2022/12/15 03:14:05;;;;;;;5.05;2.78;;;;;;;-3.71;83.01;99828.94;10611596;27;20055;-76
2022/12/15 03:19:07;;;;;;;5.68;3.47;;;;;;;-3.79;83.48;99842.56;10623857;27;20039;-74
2022/12/15 03:24:09;;;;;;;4.88;3.13;;;;;;;-3.67;83.83;99843.56;10625797;27;20504;-74
2022/12/15 03:29:12;;;;;;;4.82;2.67;;;;;;;-3.75;82.72;99848.34;10632115;27;20042;-75
2022/12/15 03:34:14;;;;;;;5.25;3.45;;;;;;;-3.84;82.94;99860.28;10589069;27;20054;-75
2022/12/15 03:39:16;;;;;;;2.08;1.60;;;;;;;-3.89;82.19;99862.78;10630551;27;20050;-74
2022/12/15 03:44:18;;;;;;;4.50;2.92;;;;;;;-3.91;82.05;99856.81;10600513;28;20046;-74
2022/12/15 03:49:20;;;;;;;2.03;1.25;;;;;;;-4.03;81.45;99873.47;10559870;28;20134;-74
2022/12/15 03:54:22;;;;;;;3.65;2.30;;;;;;;-4.35;81.70;99875.09;10575315;28;20044;-76
2022/12/15 03:59:25;;;;;;;7.90;3.28;;;;;;;-4.39;81.99;99894.44;10567064;27;20040;-74
2022/12/15 04:04:27;;;;;;;7.47;2.90;;;;;;;-4.40;81.46;99885.59;10618425;27;20420;-76
2022/12/15 04:09:29;;;;;;;5.38;2.10;;;;;;;-4.42;82.18;99905.56;10633553;27;20536;-74
2022/12/15 04:14:31;;;;;;;8.52;3.33;;;;;;;-4.45;81.49;99908.66;10646503;27;20035;-75
2022/12/15 05:34:30;;;;;;;4.53;3.72;;;;;;;-5.12;80.72;99995.81;10628981;27;20044;-76
2022/12/15 05:39:32;;;;;;;3.67;2.00;;;;;;;-5.12;80.02;100009.19;10578347;27;20043;-77
2022/12/15 05:44:34;;;;;;;6.28;3.50;;;;;;;-5.21;79.75;100007.66;10648036;27;20050;-77
2022/12/15 05:49:37;;;;;;;9.15;3.50;;;;;;;-5.06;79.25;100015.59;10601210;28;20036;-77
2022/12/15 05:54:39;;;;;;;3.50;1.70;;;;;;;-5.17;79.07;100015.13;10598749;28;20036;-76
2022/12/15 05:59:41;;;;;;;6.40;3.45;;;;;;;-5.19;79.09;100017.16;10609502;28;20039;-77
2022/12/15 06:04:43;;;;;;;7.20;4.03;;;;;;;-5.11;79.48;100010.00;10626233;27;20035;-77
2022/12/15 06:09:45;;;;;;;8.30;3.75;;;;;;;-5.10;78.66;100014.34;10552132;28;20051;-77
2022/12/15 06:14:47;;;;;;;4.97;2.72;;;;;;;-5.12;78.40;100022.56;10570060;28;20048;-77
2022/12/15 06:19:49;;;;;;;7.47;4.40;;;;;;;-5.19;78.14;100025.19;10597180;27;20083;-77
2022/12/15 06:24:52;;;;;;;4.57;2.33;;;;;;;-5.35;78.30;100049.53;10612024;28;20490;-76
2022/12/15 06:29:54;;;;;;;6.07;2.22;;;;;;;-5.47;78.43;100072.44;10607725;28;20031;-75
2022/12/15 06:34:56;;;;;;;2.15;1.80;;;;;;;-5.40;78.73;100070.66;10611111;28;20426;-77
2022/12/15 06:39:59;;;;;;;8.57;3.97;;;;;;;-5.59;78.24;100068.63;10594102;27;20063;-77
2022/12/15 06:45:02;;;;;;;8.15;4.20;;;;;;;-5.57;78.76;100080.75;10593448;28;20413;-77
2022/12/15 06:50:04;;;;;;;4.00;3.17;;;;;;;-5.41;79.25;100084.22;10612067;28;20039;-77
2022/12/15 06:55:07;;;;;;;8.82;3.85;;;;;;;-5.54;79.28;100087.59;10614271;28;20035;-77
2022/12/15 07:00:09;;;;;;;8.65;3.88;;;;;;;-5.39;78.75;100099.03;10611333;28;20039;-77
2022/12/15 07:05:12;;;;;;;6.75;4.25;;;;;;;-5.45;78.85;100102.47;10591165;28;20063;-75
2022/12/15 07:10:14;;;;;;;10.52;4.72;;;;;;;-5.60;79.42;100099.03;10611132;28;20040;-76
2022/12/15 07:15:16;;;;;;;7.35;4.00;;;;;;;-5.56;79.86;100111.81;10609955;28;20094;-77
2022/12/15 07:20:20;;;;;;;5.38;3.97;;;;;;;-5.64;80.34;100124.50;10609859;28;20066;-77
2022/12/15 07:25:22;;;;;;;3.47;1.58;;;;;;;-5.79;80.04;100143.22;10611119;28;20047;-76
2022/12/15 07:30:25;;;;;;;4.93;2.88;;;;;;;-5.85;80.65;100149.31;10614364;28;20046;-77
2022/12/15 07:35:27;;;;;;;6.80;4.03;;;;;;;-5.95;81.06;100160.31;10610564;28;20200;-76
2022/12/15 07:40:29;;;;;;;5.40;2.90;;;;;;;-6.00;81.19;100168.06;10610079;28;20044;-77
2022/12/15 07:45:31;;;;;;;8.90;4.97;;;;;;;-6.08;81.40;100176.16;10609542;28;20058;-77
2022/12/15 07:50:36;;;;;;;8.82;4.20;;;;;;;-6.11;81.10;100179.22;10608646;28;20039;-76
2022/12/15 07:55:39;;;;;;;5.60;3.25;;;;;;;-6.19;81.64;100184.66;10610568;28;20040;-77
2022/12/15 08:00:41;;;;;;;5.50;3.20;;;;;;;-6.15;81.42;100191.28;10616957;27;20043;-76
2022/12/15 08:05:43;;;;;;;3.10;2.22;;;;;;;-6.21;81.30;100197.38;10617638;28;20570;-77
2022/12/15 08:10:45;;;;;;;8.07;3.78;;;;;;;-6.22;81.63;100191.19;10617946;28;20406;-76
2022/12/15 08:15:52;;;;;;;5.03;2.97;;;;;;;-6.19;81.21;100190.00;10617241;27;20047;-76
2022/12/15 08:20:55;;;;;;;11.25;4.35;;;;;;;-6.18;81.37;100197.81;10607517;27;20040;-76
2022/12/15 08:26:04;;;;;;;11.30;4.53;;;;;;;-6.29;81.30;100206.28;10597920;28;20054;-77
2022/12/15 08:31:13;;;;;;;14.23;5.57;;;;;;;-6.27;80.77;100208.75;10615283;28;20047;-77
2022/12/15 08:36:16;;;;;;;12.23;5.50;;;;;;;-6.21;80.84;100214.22;10615533;28;20399;-76
2022/12/15 08:41:21;;;;;;;3.97;2.92;;;;;;;-6.17;79.96;100225.34;10617974;27;20145;-76
2022/12/15 08:46:32;;;;;;;6.50;4.00;;;;;;;-6.17;80.48;100228.84;10618816;27;20036;-77
2022/12/15 08:51:34;;;;;;;9.90;3.88;;;;;;;-6.09;80.31;100231.41;10617695;27;20050;-76
2022/12/15 08:56:36;;;;;;;9.63;3.90;;;;;;;-5.94;80.04;100236.78;10601820;27;20062;-77
2022/12/15 09:01:39;;;;;;;11.65;4.97;;;;;;;-5.87;79.53;100248.38;10609357;28;20046;-76
2022/12/15 09:06:41;;;;;;;4.78;2.42;;;;;;;-5.99;78.61;100257.88;10590422;28;20074;-77
2022/12/15 09:11:43;;;;;;;3.33;2.78;;;;;;;-6.08;79.00;100243.75;10616123;27;20046;-75
2022/12/15 09:16:46;;;;;;;6.70;3.00;;;;;;;-6.22;79.01;100249.94;10642004;27;20039;-77
2022/12/15 09:21:52;;;;;;;8.13;3.75;;;;;;;-6.32;79.40;100261.88;10614758;28;20043;-77
2022/12/15 09:26:55;;;;;;;6.35;4.05;;;;;;;-6.34;79.68;100266.56;10624780;27;20043;-76
2022/12/15 09:32:00;;;;;;;9.45;4.78;;;;;;;-6.45;79.51;100271.31;10620466;27;20032;-77
2022/12/15 09:37:02;;;;;;;8.18;4.05;;;;;;;-6.50;80.25;100260.34;10611336;28;20043;-76
2022/12/15 09:42:04;;;;;;;5.45;3.38;;;;;;;-6.61;80.67;100267.94;10601022;27;20040;-77
2022/12/15 09:47:15;;;;;;;8.40;4.55;;;;;;;-6.66;80.79;100278.34;10612781;27;20052;-77
2022/12/15 09:52:30;;;;;;;9.88;3.88;;;;;;;-6.64;81.37;100282.47;10595729;28;20047;-78
2022/12/15 09:57:43;;;;;;;9.32;4.10;;;;;;;-6.62;81.02;100285.81;10611769;27;20035;-78
2022/12/15 10:03:06;;;;;;;12.93;4.07;;;;;;;-6.62;80.31;100291.13;10593278;28;20063;-78
2022/12/15 10:08:13;;;;;;;4.97;3.22;;;;;;;-6.66;80.40;100324.53;10595380;28;20039;-78
2022/12/15 10:13:22;;;;;;;5.25;2.95;;;;;;;-6.78;80.57;100328.59;10601507;27;20062;-79
2022/12/15 10:18:45;;;;;;;6.13;2.20;;;;;;;-6.84;80.37;100346.16;10614742;27;20047;-78
2022/12/15 10:23:48;;;;;;;5.72;3.80;;;;;;;-6.88;80.56;100339.50;10598240;28;20047;-79
2022/12/15 10:29:05;;;;;;;11.70;5.28;;;;;;;-6.90;80.74;100362.88;10599224;27;20044;-79
2022/12/15 10:34:29;;;;;;;9.68;4.57;;;;;;;-6.82;80.92;100359.31;10611145;28;20050;-78
2022/12/15 10:39:37;;;;;;;10.50;4.38;;;;;;;-6.81;80.57;100355.63;10610823;28;20035;-79
2022/12/15 10:44:42;;;;;;;8.55;4.95;;;;;;;-6.91;80.18;100365.72;10605261;27;20039;-78
2022/12/15 10:49:44;;;;;;;8.30;4.38;;;;;;;-7.08;80.26;100373.78;10614508;27;20432;-78
2022/12/15 10:54:49;;;;;;;12.77;7.22;;;;;;;-7.15;80.38;100369.31;10611754;28;20048;-78
2022/12/15 10:59:51;;;;;;;8.35;4.05;;;;;;;-7.13;80.29;100372.63;10597388;28;20047;-77
2022/12/15 11:05:03;;;;;;;9.48;4.65;;;;;;;-7.16;79.40;100378.31;10591161;28;20040;-78
2022/12/15 11:10:25;;;;;;;11.20;5.10;;;;;;;-7.20;79.38;100377.00;10594784;28;20038;-78
2022/12/15 11:15:31;;;;;;;9.73;5.25;;;;;;;-7.21;79.22;100386.00;10622225;28;20032;-78
2022/12/15 11:20:37;;;;;;;12.75;6.72;;;;;;;-7.28;78.90;100391.19;10610420;28;20390;-77
2022/12/15 11:25:42;;;;;;;12.98;7.03;;;;;;;-7.23;78.86;100394.19;10611071;28;20058;-78
2022/12/15 11:30:49;;;;;;;18.40;7.90;;;;;;;-7.08;79.62;100395.13;10589479;27;20055;-78
2022/12/15 11:36:10;;;;;;;9.90;4.88;;;;;;;-7.01;78.87;100385.41;10595891;27;20063;-76
2022/12/15 11:41:38;;;;;;;8.85;4.28;;;;;;;-7.06;79.30;100390.44;10610414;27;20048;-76
2022/12/15 11:47:32;;;;;;;9.02;5.72;;;;;;;-7.11;79.37;100395.47;10586642;27;20048;-77
2022/12/15 11:52:44;;;;;;;10.90;4.38;;;;;;;-7.25;78.44;100393.53;10550292;27;20052;-78
2022/12/15 11:58:09;;;;;;;18.10;6.10;;;;;;;-7.35;79.19;100388.38;10589196;27;20501;-76
2022/12/15 12:03:17;;;;;;;14.15;4.82;;;;;;;-7.43;78.61;100392.91;10590827;28;20047;-76
2022/12/15 12:08:40;;;;;;;10.27;5.30;;;;;;;-7.52;78.91;100402.75;10574506;28;20059;-77
2022/12/15 12:13:45;;;;;;;9.35;3.65;;;;;;;-7.60;79.71;100398.28;10574806;28;20043;-76
2022/12/15 12:18:54;;;;;;;6.40;4.28;;;;;;;-7.73;79.33;100405.94;10559450;28;20060;-76
2022/12/15 12:24:28;;;;;;;;;;;;;;;-7.73;79.46;100405.94;10557000;28;20056;-77
2022/12/15 12:29:41;;;;;;;7.85;3.90;;;;;;;-7.78;79.71;100405.63;10540008;28;19927;-77
2022/12/15 12:35:27;;;;;;;6.95;4.10;;;;;;;-8.00;79.74;100425.75;10568753;28;20047;-77
2022/12/15 12:41:01;;;;;;;2.47;2.22;;;;;;;-8.17;80.49;100428.59;10587958;27;20445;-78
2022/12/15 12:46:14;;;;;;;4.20;2.28;;;;;;;-8.35;80.24;100424.28;10576931;28;20051;-77
2022/12/15 12:51:24;;;;;;;6.28;3.42;;;;;;;-8.47;80.63;100427.44;10635030;27;20035;-77
2022/12/15 12:56:37;;;;;;;10.93;4.95;;;;;;;-8.48;81.77;100421.28;10628231;27;20046;-77
2022/12/15 13:01:39;;;;;;;7.72;3.63;;;;;;;-8.50;82.12;100425.94;10594055;28;21503;-80
2022/12/15 13:06:41;;;;;;;9.05;4.00;;;;;;;-8.52;81.49;100412.78;10614586;27;20040;-76
2022/12/15 13:11:43;;;;;;;10.27;4.88;;;;;;;-8.51;82.37;100418.91;10613131;28;20055;-76
2022/12/15 13:16:46;;;;;;;6.20;3.22;;;;;;;-8.53;82.29;100408.44;10612362;27;20027;-77
2022/12/15 13:21:53;;;;;;;5.63;3.58;;;;;;;-8.60;82.47;100409.28;10609260;28;20059;-79
2022/12/15 13:27:07;;;;;;;7.60;4.00;;;;;;;-8.58;82.85;100409.94;10614372;27;20039;-79
2022/12/15 13:32:27;;;;;;;6.30;4.43;;;;;;;-8.58;82.74;100418.75;10611806;28;20050;-77
2022/12/15 13:37:49;;;;;;;10.70;4.97;;;;;;;-8.61;82.31;100421.75;10610891;28;20058;-78
2022/12/15 13:43:27;;;;;;;10.18;4.43;;;;;;;-8.65;82.83;100408.94;10612526;28;20043;-78
2022/12/15 13:48:44;;;;;;;3.90;2.40;;;;;;;-8.62;83.06;100408.63;10595822;28;20051;-78
2022/12/15 13:54:03;;;;;;;5.07;3.00;;;;;;;-8.70;83.17;100412.06;10605313;28;20118;-79
2022/12/15 13:59:33;;;;;;;7.80;4.15;;;;;;;-8.67;82.56;100424.22;10572452;28;20109;-78
2022/12/15 14:04:35;;;;;;;5.97;2.88;;;;;;;-8.62;82.94;100424.56;10597059;28;20040;-78
2022/12/15 14:09:40;;;;;;;6.90;3.88;;;;;;;-8.66;82.75;100420.56;10605919;28;20417;-77
2022/12/15 14:14:45;;;;;;;2.50;1.90;;;;;;;-8.68;83.03;100417.22;10606301;28;20046;-78
2022/12/15 14:19:48;;;;;;;5.95;3.38;;;;;;;-8.74;82.93;100423.19;10607364;27;20418;-77
2022/12/15 14:24:52;;;;;;;7.10;4.28;;;;;;;-8.62;83.13;100417.41;10603215;28;20051;-77
2022/12/15 14:30:13;;;;;;;9.48;4.57;;;;;;;-8.72;82.83;100421.19;10587976;28;20036;-78
2022/12/15 14:35:41;;;;;;;8.02;4.10;;;;;;;-8.64;83.43;100411.44;10606102;28;20425;-78
2022/12/15 14:40:44;;;;;;;8.85;4.13;;;;;;;-8.51;83.29;100400.31;10565219;27;20194;-78
2022/12/15 14:46:04;;;;;;;7.55;2.90;;;;;;;-8.63;82.78;100394.47;10593176;28;20054;-77
2022/12/15 14:51:09;;;;;;;7.07;3.42;;;;;;;-8.69;82.68;100381.81;10594334;28;20040;-78
2022/12/15 14:56:17;;;;;;;7.00;3.97;;;;;;;-8.68;83.43;100374.66;10598445;28;20052;-78
2022/12/15 15:01:28;;;;;;;9.13;4.57;;;;;;;-8.60;83.51;100377.34;10570906;28;20046;-77
2022/12/15 15:06:38;;;;;;;9.00;4.43;;;;;;;-8.56;83.55;100360.06;10573190;28;20052;-77
2022/12/15 15:11:40;;;;;;;9.75;4.05;;;;;;;-8.64;83.82;100360.91;10587314;28;20036;-77
2022/12/15 15:16:43;;;;;;;8.98;4.70;;;;;;;-8.56;83.59;100362.72;10576892;28;20071;-76
2022/12/15 15:21:46;;;;;;;9.32;4.03;;;;;;;-8.55;83.82;100369.72;10575615;28;20560;-78
2022/12/15 15:26:49;;;;;;;4.45;3.00;;;;;;;-8.47;83.58;100355.59;10558497;28;20055;-78
2022/12/15 15:31:52;;;;;;;7.93;4.63;;;;;;;-8.27;83.82;100364.88;10557923;28;20036;-78
2022/12/15 15:36:56;;;;;;;6.72;3.95;;;;;;;-8.27;83.37;100351.59;10575919;28;20051;-78
2022/12/15 15:42:04;;;;;;;8.77;5.18;;;;;;;-8.20;83.61;100357.88;10576131;28;20040;-78
2022/12/15 15:47:33;;;;;;;9.07;4.88;;;;;;;-8.00;84.08;100356.53;10603178;28;20039;-78
2022/12/15 15:52:36;;;;;;;8.85;4.07;;;;;;;-8.14;84.49;100348.44;10617193;28;20051;-78
2022/12/15 15:57:38;;;;;;;8.32;3.67;;;;;;;-8.22;84.62;100349.25;10599503;28;20043;-78
2022/12/15 16:02:41;;;;;;;8.63;4.10;;;;;;;-7.55;85.98;100343.66;10618250;27;20062;-77
2022/12/15 16:07:45;;;;;;;8.73;4.75;;;;;;;-7.64;85.32;100348.97;10616546;28;20039;-78
2022/12/15 16:12:50;;;;;;;6.35;4.05;;;;;;;-7.48;84.74;100344.59;10617663;28;20040;-77
2022/12/15 16:17:54;;;;;;;8.32;4.68;;;;;;;-7.64;84.52;100342.81;10578175;27;20044;-78
2022/12/15 16:23:02;;;;;;;7.72;4.55;;;;;;;-7.67;83.95;100344.00;10595066;28;20039;-78
2022/12/15 16:28:14;;;;;;;8.90;5.15;;;;;;;-7.58;84.16;100351.97;10615932;28;20035;-78
2022/12/15 16:33:17;;;;;;;6.88;4.13;;;;;;;-7.64;83.59;100348.97;10610888;28;20414;-75
2022/12/15 16:38:27;;;;;;;8.70;4.65;;;;;;;-7.72;83.60;100348.19;10587383;28;20052;-80
2022/12/15 16:43:29;;;;;;;7.13;4.30;;;;;;;-7.86;83.47;100344.38;10555503;28;20048;-80
2022/12/15 16:48:34;;;;;;;7.07;3.78;;;;;;;-8.06;84.00;100343.09;10594868;27;20048;-80
2022/12/15 16:53:38;;;;;;;5.30;2.90;;;;;;;-8.08;83.86;100351.22;10603408;27;20031;-79
2022/12/15 16:58:43;;;;;;;8.30;4.13;;;;;;;-8.12;84.17;100338.44;10578780;27;20438;-79
2022/12/15 17:03:45;;;;;;;6.43;3.60;;;;;;;-8.21;84.01;100341.09;10595421;27;20043;-79
2022/12/15 17:08:50;;;;;;;6.68;3.58;;;;;;;-8.24;84.81;100338.75;10616498;27;20036;-78
2022/12/15 17:13:55;;;;;;;8.93;4.32;;;;;;;-8.02;84.59;100342.56;10608609;27;20402;-77
2022/12/15 17:18:58;;;;;;;8.55;4.55;;;;;;;-7.99;84.56;100334.22;10607299;27;20050;-77
2022/12/15 17:24:06;;;;;;;7.93;4.28;;;;;;;-7.54;85.19;100331.97;10608079;27;20048;-78
2022/12/15 17:29:16;;;;;;;8.52;4.10;;;;;;;-7.58;84.98;100309.34;10610305;27;20043;-77
2022/12/15 17:34:31;;;;;;;9.38;4.97;;;;;;;-7.81;84.61;100314.56;10592484;28;20517;-77
2022/12/15 17:39:34;;;;;;;8.15;4.25;;;;;;;-7.79;84.29;100300.09;10591769;27;20035;-77
2022/12/15 17:44:36;;;;;;;8.05;3.78;;;;;;;-7.65;84.61;100318.00;10573027;28;20035;-76
2022/12/15 17:49:39;;;;;;;11.07;5.65;;;;;;;-7.61;85.30;100321.19;10604975;27;20043;-74
2022/12/15 17:54:41;;;;;;;5.78;3.33;;;;;;;-7.66;84.85;100324.34;10609016;27;20095;-75
2022/12/15 17:59:44;;;;;;;9.20;4.20;;;;;;;-7.62;84.41;100328.34;10589612;28;20055;-76
2022/12/15 18:04:46;;;;;;;9.95;5.65;;;;;;;-7.77;84.88;100326.56;10611198;27;20047;-75
2022/12/15 18:09:51;;;;;;;10.80;4.97;;;;;;;-7.84;84.49;100326.41;10631861;27;20058;-74
2022/12/15 18:14:55;;;;;;;10.50;4.43;;;;;;;-8.03;84.66;100327.59;10608967;27;20406;-77
2022/12/15 18:19:57;;;;;;;7.88;4.10;;;;;;;-8.11;84.76;100324.97;10624572;27;20051;-78
2022/12/15 18:24:59;;;;;;;9.30;4.60;;;;;;;-8.06;84.82;100319.94;10605505;27;20046;-76
2022/12/15 18:30:03;;;;;;;6.78;4.45;;;;;;;-8.08;85.15;100313.13;10591214;28;20055;-73
2022/12/15 18:35:17;;;;;;;8.55;4.82;;;;;;;-8.16;86.02;100318.44;10607058;27;20048;-74
2022/12/15 18:40:23;;;;;;;4.78;3.60;;;;;;;-7.90;85.98;100316.44;10611385;27;20046;-75
2022/12/15 18:45:26;;;;;;;9.32;5.22;;;;;;;-7.82;85.61;100316.41;10608207;27;20046;-77
2022/12/15 18:51:20;;;;;;;10.65;5.18;;;;;;;-7.63;85.51;100301.88;10579303;28;20036;-76
2022/12/15 18:56:24;;;;;;;11.60;4.95;;;;;;;-7.33;85.30;100297.59;10629813;27;20047;-76
2022/12/15 19:01:26;;;;;;;8.70;4.80;;;;;;;-7.10;84.85;100302.97;10629906;28;20043;-77
2022/12/15 19:06:34;;;;;;;7.78;4.00;;;;;;;-7.07;84.86;100306.13;10596118;28;20028;-77
2022/12/15 19:11:37;;;;;;;11.20;4.03;;;;;;;-6.81;83.91;100312.97;10618662;28;20046;-76
2022/12/15 19:22:28;;;;;;;13.25;7.57;;;;;;;-6.78;83.42;100305.44;10585319;28;20047;-76
2022/12/15 19:27:30;;;;;;;18.38;9.15;;;;;;;-6.88;83.12;100312.84;10585994;28;20057;-78
2022/12/15 19:32:35;;;;;;;14.23;6.90;;;;;;;-6.61;83.72;100319.47;10626940;28;20043;-77
2022/12/15 19:37:41;;;;;;;9.57;5.75;;;;;;;-6.58;83.14;100319.16;10613365;28;20043;-81
2022/12/15 19:42:45;;;;;;;10.82;6.57;;;;;;;-6.43;82.92;100316.50;10574557;28;20047;-80
2022/12/15 19:47:48;;;;;;;12.88;5.88;;;;;;;-6.26;82.84;100304.69;10583026;28;20494;-79
2022/12/15 19:52:58;;;;;;;9.40;5.80;;;;;;;-6.17;82.57;100294.78;10600769;27;20040;-79
2022/12/15 19:58:37;;;;;;;10.55;5.70;;;;;;;-5.98;82.12;100291.59;10579134;27;20055;-75
2022/12/15 20:03:43;;;;;;;12.05;5.88;;;;;;;-6.01;81.90;100296.47;10553794;27;20054;-78
2022/12/15 20:08:48;;;;;;;7.88;5.00;;;;;;;-5.89;81.93;100294.97;10614364;27;20051;-75
2022/12/15 20:13:52;;;;;;;11.20;5.10;;;;;;;-5.80;81.08;100281.34;10558027;27;20047;-76
2022/12/15 20:18:55;;;;;;;12.93;6.13;;;;;;;-5.77;80.82;100280.97;10614846;27;20051;-76
2022/12/15 20:24:01;;;;;;;8.98;5.40;;;;;;;-5.73;80.68;100277.91;10587218;27;20418;-76
2022/12/15 20:29:04;;;;;;;9.60;5.10;;;;;;;-5.76;80.54;100279.13;10584827;28;20127;-78
2022/12/15 20:34:06;;;;;;;8.40;5.65;;;;;;;-5.78;80.55;100279.31;10599355;27;20047;-76
2022/12/15 20:39:27;;;;;;;8.75;5.72;;;;;;;-5.94;80.37;100276.84;10594508;28;20529;-76
2022/12/15 20:44:29;;;;;;;9.93;5.38;;;;;;;-5.81;80.75;100286.88;10581633;27;20036;-76
2022/12/15 20:49:32;;;;;;;8.25;4.75;;;;;;;-5.90;80.50;100285.31;10596422;28;20544;-77
2022/12/15 20:54:37;;;;;;;10.98;5.43;;;;;;;-5.73;80.75;100285.94;10595504;28;20417;-75
2022/12/15 20:59:39;;;;;;;8.93;5.35;;;;;;;-5.74;80.25;100278.94;10635123;27;20044;-76
2022/12/15 21:04:41;;;;;;;10.00;5.22;;;;;;;-5.81;80.06;100279.69;10635607;27;20436;-78
2022/12/15 21:09:44;;;;;;;14.18;5.88;;;;;;;-5.70;80.03;100288.25;10622654;27;20042;-78
2022/12/15 21:14:47;;;;;;;11.30;5.65;;;;;;;-5.84;80.05;100281.91;10644519;27;20035;-78
2022/12/15 21:19:50;;;;;;;10.85;5.38;;;;;;;-5.73;80.10;100270.72;10617614;27;20035;-77
2022/12/15 21:24:54;;;;;;;9.52;5.70;;;;;;;-5.73;80.08;100270.72;10593561;28;20421;-77
2022/12/15 21:29:56;;;;;;;9.00;5.20;;;;;;;-5.83;79.69;100281.72;10599008;28;20048;-75
2022/12/15 21:34:58;;;;;;;8.73;5.05;;;;;;;-6.07;80.09;100282.00;10614657;27;20050;-76
2022/12/15 21:40:01;;;;;;;9.27;5.63;;;;;;;-5.87;80.14;100279.59;10625661;27;20051;-76
2022/12/15 21:45:12;;;;;;;9.43;5.10;;;;;;;-6.04;80.35;100295.00;10602496;27;20405;-80
2022/12/15 21:50:18;;;;;;;11.00;6.13;;;;;;;-5.95;80.17;100288.53;10604837;27;20032;-77
2022/12/15 21:55:22;;;;;;;8.63;5.63;;;;;;;-5.91;80.37;100286.31;10627094;27;20050;-77
2022/12/15 22:00:25;;;;;;;12.10;5.85;;;;;;;-5.83;80.03;100292.41;10586122;27;20464;-78
2022/12/15 22:05:31;;;;;;;10.88;5.55;;;;;;;-6.02;79.67;100297.47;10594333;27;20043;-77
2022/12/15 22:10:33;;;;;;;10.00;5.75;;;;;;;-6.08;79.69;100288.34;10619750;27;20068;-75
2022/12/15 22:15:35;;;;;;;11.45;6.15;;;;;;;-6.29;80.49;100301.56;10626139;27;20043;-77
2022/12/15 22:20:37;;;;;;;9.50;5.50;;;;;;;-6.31;80.79;100303.56;10614250;27;20035;-76
2022/12/15 22:25:40;;;;;;;9.13;5.43;;;;;;;-6.40;80.72;100306.34;10615496;27;20392;-79
2022/12/15 22:30:42;;;;;;;10.25;5.97;;;;;;;-6.43;80.98;100312.00;10561801;27;20055;-74
2022/12/15 22:35:44;;;;;;;10.10;5.72;;;;;;;-6.26;81.40;100311.88;10601765;27;20043;-76
2022/12/15 22:40:49;;;;;;;11.00;6.10;;;;;;;-6.30;80.99;100305.22;10627255;27;20064;-77
2022/12/15 22:45:54;;;;;;;10.90;6.28;;;;;;;-6.19;80.94;100294.13;10615980;28;20055;-75
2022/12/15 22:50:56;;;;;;;11.57;6.88;;;;;;;-6.18;81.39;100309.97;10594199;28;20043;-75
2022/12/15 22:55:59;;;;;;;10.90;6.78;;;;;;;-6.11;80.91;100320.75;10596528;28;20047;-75
2022/12/15 23:01:05;;;;;;;11.82;6.43;;;;;;;-6.27;80.70;100323.56;10569904;28;20746;-76
2022/12/15 23:06:07;;;;;;;12.63;6.43;;;;;;;-6.16;80.85;100315.13;10556565;28;20043;-75
2022/12/15 23:16:30;;;;;;;11.73;6.30;;;;;;;-6.45;81.01;100314.03;10597686;28;20051;-74
2022/12/15 23:21:33;;;;;;;11.35;6.28;;;;;;;-6.66;81.71;100315.69;10627695;28;20043;-75
2022/12/15 23:26:35;;;;;;;10.98;6.03;;;;;;;-6.55;81.95;100308.13;10601089;27;20421;-76
2022/12/15 23:31:37;;;;;;;10.00;6.00;;;;;;;-6.42;81.53;100316.38;10594772;27;20078;-76
2022/12/15 23:36:39;;;;;;;11.43;6.50;;;;;;;-6.24;81.46;100323.22;10608100;27;20047;-76
2022/12/15 23:41:42;;;;;;;10.60;6.15;;;;;;;-6.30;81.04;100329.25;10641196;27;20046;-75
2022/12/15 23:46:45;;;;;;;9.95;5.95;;;;;;;-6.43;80.52;100332.53;10635329;27;20042;-75
2022/12/15 23:51:47;;;;;;;12.05;6.20;;;;;;;-6.58;81.27;100339.66;10620517;27;20047;-75
2022/12/15 23:56:50;;;;;;;10.65;6.30;;;;;;;-6.62;81.77;100343.69;10623776;27;20039;-75
